ESSA Airport Information

Runway Information
Runway 01R Length 8201 ft width 148 ft
Elevation 137 ft Threshold ft Heading 10
Runway 19L Length 8201 ft Width 148 ft
Elevation 98 ft Threshold ft Heading 190
Runway 01L Length 10830 ft width 148 ft
Elevation 98 ft Threshold ft Heading 10
Runway 19R Length 10830 ft Width 148 ft
Elevation 118 ft Threshold ft Heading 190
Runway 08 Length 8202 ft width 148 ft
Elevation 108 ft Threshold ft Heading 76
Runway 26 Length 8202 ft Width 148 ft
Elevation 124 ft Threshold ft Heading 256
Airport Frequencies
Type APP Name STOCKHOLM Frequency 123.75 MHZ
Type ATIS Name ATIS Frequency 119 MHZ
Type CLD Name CLNC DEL Frequency 121.825 MHZ
Type GND Name GND Frequency 121.7 MHZ
Type PMSV Name MET OFFICE Frequency 122.6 MHZ
Type TWR Name TWR Frequency 118.5 MHZ
Airport Navaids
Type VOR-DME Name Arlanda Frequency 116000 KHZ
Type NDB Name Arlanda Frequency 352 KHZ
Type NDB Name Arlanda Frequency 360 KHZ
Type NDB Name Arlanda Frequency 404 KHZ
Type NDB Name Arlanda Frequency 370 KHZ
Airport Weather Information & NOTAM
ADDS - METARS form results

(1326 UTC 26 June 2022)
Data provider http://aviationweather.gov/metar/data/
 
METAR text: ESSA 261320Z 15010KT CAVOK 27/15 Q1018 NOSIG
Conditions at: ESSA (STOCKHOLM/ARLAND, SE) observed 1320 UTC 26 June 2022
Temperature: 27.0°C (81°F)
Dewpoint: 15.0°C (59°F) [RH = 48%]
Pressure (altimeter): 30.06 inches Hg (1018.0 mb)
Winds: from the SSE (150 degrees) at 12 MPH (10 knots; 5.1 m/s)
Visibility: 6 or more miles (10+ km)
Ceiling: ceiling and visibility are OK
Clouds: unknown
Weather: no significant weather observed at this time

METAR text: ESSA 261250Z 14010KT CAVOK 27/15 Q1018 NOSIG
Conditions at: ESSA (STOCKHOLM/ARLAND, SE) observed 1250 UTC 26 June 2022
Temperature: 27.0°C (81°F)
Dewpoint: 15.0°C (59°F) [RH = 48%]
Pressure (altimeter): 30.06 inches Hg (1018.0 mb)
Winds: from the SE (140 degrees) at 12 MPH (10 knots; 5.1 m/s)
Visibility: 6 or more miles (10+ km)
Ceiling: ceiling and visibility are OK
Clouds: unknown
Weather: no significant weather observed at this time

Forecast for: ESSA (STOCKHOLM/ARLAND, SE)
Text: TAF ESSA 261130Z 2612/2712 16012KT CAVOK
Forecast period: 1200 UTC 26 June 2022 to 1200 UTC 27 June 2022
Forecast type: FROM: standard forecast or significant change
Winds: from the SSE (160 degrees) at 14 MPH (12 knots; 6.2 m/s)
Visibility: 6 or more miles (10+ km)
Ceiling: unknown
Clouds: missing
Weather: NSW  (no significant weather)